createdAt,value
2019-04-20T00:01:22.878Z,9.00
2019-04-20T00:06:21.954Z,9.20
2019-04-20T00:11:34.924Z,9.00
2019-04-20T00:16:31.710Z,10.00
2019-04-20T00:21:56.365Z,6.75
2019-04-20T00:32:11.468Z,10.00
2019-04-20T00:37:05.155Z,8.80
2019-04-20T00:42:12.644Z,7.25
2019-04-20T00:47:31.773Z,8.75
2019-04-20T00:52:37.511Z,8.50
2019-04-20T00:57:36.865Z,7.00
2019-04-20T01:02:45.506Z,10.00
2019-04-20T01:08:00.175Z,7.00
2019-04-20T01:13:08.719Z,7.00
2019-04-20T01:18:10.638Z,9.00
2019-04-20T01:23:17.239Z,6.00
2019-04-20T01:28:35.854Z,6.00
2019-04-20T01:33:36.509Z,6.00
2019-04-20T01:38:45.119Z,7.80
2019-04-20T01:43:35.385Z,8.20
2019-04-20T01:48:41.334Z,8.00
2019-04-20T01:54:09.151Z,6.00
2019-04-20T01:59:26.661Z,6.00
2019-04-20T02:04:37.577Z,5.75
2019-04-20T02:09:48.352Z,7.60
2019-04-20T02:14:50.496Z,6.25
2019-04-20T02:20:10.419Z,9.00
2019-04-20T02:24:57.068Z,6.25
2019-04-20T02:30:29.940Z,8.60
2019-04-20T02:35:53.962Z,7.60
2019-04-20T02:40:56.812Z,8.00
2019-04-20T02:46:15.513Z,6.00
2019-04-20T02:51:10.528Z,8.00
2019-04-20T02:56:12.969Z,5.25
2019-04-20T03:01:30.934Z,7.75
2019-04-20T03:06:30.692Z,5.20
2019-04-20T03:11:52.938Z,6.20
2019-04-20T03:16:45.493Z,5.00
2019-04-20T03:22:00.404Z,7.00
2019-04-20T03:26:59.872Z,5.00
2019-04-20T03:32:50.177Z,6.00
2019-04-20T03:37:38.074Z,8.00
2019-04-20T03:42:16.043Z,6.00
2019-04-20T03:47:31.569Z,6.00
2019-04-20T03:52:58.308Z,5.75
2019-04-20T03:58:31.743Z,7.00
2019-04-20T04:08:39.006Z,7.75
2019-04-20T04:13:37.766Z,5.00
2019-04-20T04:18:47.211Z,4.50
2019-04-20T04:24:02.468Z,5.00
2019-04-20T04:29:12.683Z,7.00
2019-04-20T04:34:17.401Z,5.00
2019-04-20T04:39:29.366Z,6.60
2019-04-20T04:44:23.838Z,7.00
2019-04-20T04:49:24.920Z,5.00
2019-04-20T04:54:30.543Z,6.75
2019-04-20T04:59:27.538Z,5.20
2019-04-20T05:05:19.347Z,5.00
2019-04-20T05:09:59.188Z,7.00
2019-04-20T05:15:10.158Z,6.25
2019-04-20T05:20:29.044Z,6.20
2019-04-20T05:26:04.052Z,5.00
2019-04-20T05:30:46.915Z,5.20
2019-04-20T05:36:28.144Z,5.60
2019-04-20T05:41:32.709Z,5.40
2019-04-20T05:46:37.466Z,5.00
2019-04-20T05:51:43.262Z,5.00
2019-04-20T05:56:52.421Z,5.00
2019-04-20T06:01:57.659Z,7.00
2019-04-20T06:06:59.635Z,6.00
2019-04-20T06:12:18.008Z,6.75
2019-04-20T06:17:31.368Z,5.00
2019-04-20T06:22:48.332Z,5.00
2019-04-20T06:27:52.796Z,4.60
2019-04-20T06:33:38.799Z,5.25
2019-04-20T06:43:46.030Z,4.00
2019-04-20T06:48:52.343Z,5.00
2019-04-20T06:53:52.611Z,38.75
2019-04-20T06:59:12.558Z,41.50
2019-04-20T07:04:33.470Z,45.25
2019-04-20T07:09:26.255Z,41.00
2019-04-20T07:14:11.121Z,37.25
2019-04-20T07:19:36.535Z,37.75
2019-04-20T07:24:55.125Z,37.75
2019-04-20T07:29:57.096Z,36.00
2019-04-20T07:34:56.858Z,35.80
2019-04-20T07:40:07.510Z,37.00
2019-04-20T07:45:16.847Z,38.00
2019-04-20T07:50:09.132Z,36.25
2019-04-20T07:55:33.154Z,35.75
2019-04-20T08:00:38.547Z,33.60
2019-04-20T08:05:30.565Z,33.83
2019-04-20T08:10:39.446Z,33.60
2019-04-20T08:16:07.328Z,32.60
2019-04-20T08:20:59.595Z,33.00
2019-04-20T08:25:52.305Z,34.00
2019-04-20T08:31:18.218Z,33.00
2019-04-20T08:36:33.249Z,28.20
2019-04-20T08:41:29.694Z,29.25
2019-04-20T08:46:57.115Z,30.25
2019-04-20T08:51:55.077Z,31.00
2019-04-20T08:56:42.754Z,28.60
2019-04-20T09:01:40.692Z,27.25
2019-04-20T09:06:57.207Z,28.50
2019-04-20T09:12:11.907Z,27.00
2019-04-20T09:17:08.072Z,27.00
2019-04-20T09:22:40.531Z,27.50
2019-04-20T09:27:43.564Z,27.00
2019-04-20T09:33:08.021Z,24.50
2019-04-20T09:38:11.794Z,28.40
2019-04-20T09:43:32.329Z,29.20
2019-04-20T09:48:42.636Z,28.40
2019-04-20T09:53:52.623Z,27.00
2019-04-20T09:59:09.854Z,30.00
2019-04-20T10:03:52.490Z,28.75
2019-04-20T10:09:00.075Z,30.50
2019-04-20T10:14:02.233Z,27.00
2019-04-20T10:19:08.728Z,25.25
2019-04-20T10:24:12.578Z,28.75
2019-04-20T10:29:17.439Z,28.50
2019-04-20T10:34:23.998Z,31.00
2019-04-20T10:39:28.769Z,27.75
2019-04-20T10:44:32.774Z,29.25
2019-04-20T10:49:37.365Z,28.25
2019-04-20T10:54:42.652Z,28.40
2019-04-20T10:59:47.734Z,31.00
2019-04-20T11:04:52.644Z,26.50
2019-04-20T11:10:10.667Z,29.75
2019-04-20T11:15:02.954Z,28.00
2019-04-20T11:20:07.494Z,29.20
2019-04-20T11:25:12.431Z,29.67
2019-04-20T11:30:16.681Z,28.75
2019-04-20T11:35:28.082Z,27.20
2019-04-20T11:40:26.754Z,28.75
2019-04-20T11:45:31.067Z,24.20
2019-04-20T11:50:35.681Z,26.20
2019-04-20T11:55:40.431Z,26.00
2019-04-20T12:00:58.642Z,25.00
2019-04-20T12:05:57.468Z,26.00
2019-04-20T12:11:03.139Z,26.20
2019-04-20T12:16:05.688Z,24.00
2019-04-20T12:21:10.595Z,24.00
2019-04-20T12:26:15.041Z,23.25
2019-04-20T12:31:22.793Z,21.50
2019-04-20T12:36:26.032Z,25.60
2019-04-20T12:41:37.830Z,22.40
2019-04-20T12:46:35.993Z,21.75
2019-04-20T12:51:47.536Z,25.75
2019-04-20T12:56:46.572Z,23.75
2019-04-20T13:01:51.384Z,22.25
2019-04-20T13:06:55.467Z,22.00
2019-04-20T13:12:11.974Z,21.40
2019-04-20T13:17:16.531Z,21.50
2019-04-20T13:22:21.135Z,22.75
2019-04-20T13:33:51.933Z,22.75
2019-04-20T13:38:56.385Z,21.50
2019-04-20T13:44:01.986Z,20.20
2019-04-20T13:49:07.038Z,20.75
2019-04-20T13:54:14.986Z,20.75
2019-04-20T13:59:48.129Z,21.00
2019-04-20T14:04:55.084Z,21.25
2019-04-20T14:09:59.497Z,22.00
2019-04-20T14:15:05.011Z,21.40
2019-04-20T14:20:13.206Z,20.80
2019-04-20T14:25:15.340Z,21.80
2019-04-20T14:30:19.373Z,24.50
2019-04-20T14:35:23.178Z,23.40
2019-04-20T14:40:28.245Z,20.00
2019-04-20T14:45:32.380Z,21.00
2019-04-20T14:50:36.189Z,21.00
2019-04-20T14:55:40.070Z,22.00
2019-04-20T15:00:58.991Z,20.00
2019-04-20T15:06:03.376Z,19.20
2019-04-20T15:11:07.638Z,18.80
2019-04-20T15:16:12.724Z,21.25
2019-04-20T15:21:17.622Z,19.50
2019-04-20T15:26:22.458Z,20.00
2019-04-20T15:31:26.468Z,19.00
2019-04-20T15:36:30.243Z,19.60
2019-04-20T15:41:35.719Z,19.00
2019-04-20T15:46:39.985Z,19.00
2019-04-20T15:51:46.041Z,20.75
2019-04-20T15:56:56.942Z,20.00
2019-04-20T16:02:00.145Z,19.75
2019-04-20T16:07:05.418Z,20.00
2019-04-20T16:12:10.925Z,18.00
2019-04-20T16:17:15.263Z,21.00
2019-04-20T16:22:21.684Z,19.00
2019-04-20T16:27:38.543Z,20.00
2019-04-20T16:32:42.741Z,18.25
2019-04-20T16:37:46.653Z,19.00
2019-04-20T16:42:50.514Z,19.80
2019-04-20T16:47:54.530Z,18.00
2019-04-20T16:52:59.095Z,20.00
2019-04-20T16:58:03.824Z,20.00
2019-04-20T17:03:09.090Z,17.00
2019-04-20T17:08:13.202Z,17.60
2019-04-20T17:13:30.414Z,17.75
2019-04-20T17:18:23.545Z,18.00
2019-04-20T17:23:27.709Z,15.00
2019-04-20T17:28:49.205Z,18.25
2019-04-20T17:34:04.735Z,18.25
2019-04-20T17:39:11.434Z,17.00
2019-04-20T17:44:29.078Z,17.00
2019-04-20T17:49:31.632Z,17.60
2019-04-20T17:54:31.731Z,16.20
2019-04-20T17:59:38.131Z,17.25
2019-04-20T18:05:14.232Z,17.00
2019-04-20T18:10:15.309Z,17.00
2019-04-20T18:15:21.056Z,17.60
2019-04-20T18:20:12.663Z,18.75
2019-04-20T18:25:38.484Z,19.60
2019-04-20T18:30:48.846Z,18.60
2019-04-20T18:35:47.574Z,19.00
2019-04-20T18:41:00.426Z,18.75
2019-04-20T18:46:12.437Z,18.50
2019-04-20T18:51:03.818Z,19.40
2019-04-20T18:56:08.167Z,19.50
2019-04-20T19:01:13.229Z,18.60
2019-04-20T19:06:18.060Z,18.25
2019-04-20T19:11:24.964Z,18.25
2019-04-20T19:16:49.716Z,18.00
2019-04-20T19:21:41.071Z,19.60
2019-04-20T19:26:50.752Z,18.40
2019-04-20T19:32:15.858Z,20.00
2019-04-20T19:37:06.336Z,19.50
2019-04-20T19:42:22.387Z,17.25
2019-04-20T19:47:28.458Z,18.25
2019-04-20T19:52:39.622Z,18.20
2019-04-20T19:57:37.325Z,19.00
2019-04-20T20:02:25.924Z,18.20
2019-04-20T20:07:38.034Z,17.80
2019-04-20T20:12:35.684Z,20.25
2019-04-20T20:18:01.937Z,19.50
2019-04-20T20:22:49.793Z,19.00
2019-04-20T20:27:57.421Z,18.75
2019-04-20T20:33:16.028Z,22.40
2019-04-20T20:38:13.338Z,21.00
2019-04-20T20:43:18.436Z,20.00
2019-04-20T20:48:30.022Z,20.00
2019-04-20T20:53:32.868Z,19.00
2019-04-20T20:58:37.465Z,21.00
2019-04-20T21:03:37.004Z,19.75
2019-04-20T21:08:44.875Z,18.75
2019-04-20T21:13:45.220Z,21.00
2019-04-20T21:18:59.869Z,20.00
2019-04-20T21:24:06.600Z,19.00
2019-04-20T21:29:03.861Z,19.00
2019-04-20T21:34:14.490Z,19.50
2019-04-20T21:39:22.318Z,20.00
2019-04-20T21:44:25.220Z,19.00
2019-04-20T21:49:38.741Z,19.60
2019-04-20T21:54:31.963Z,19.00
2019-04-20T21:59:43.261Z,20.00
2019-04-20T22:04:45.245Z,19.75
2019-04-20T22:09:53.104Z,18.50
2019-04-20T22:15:00.763Z,19.00
2019-04-20T22:20:11.972Z,19.80
2019-04-20T22:25:23.497Z,20.00
2019-04-20T22:30:12.259Z,18.00
2019-04-20T22:35:18.818Z,16.75
2019-04-20T22:40:28.047Z,17.80
2019-04-20T22:45:29.541Z,18.00
2019-04-20T22:50:46.239Z,19.00
2019-04-20T22:56:04.381Z,17.00
2019-04-20T23:00:53.713Z,17.75
2019-04-20T23:05:50.991Z,17.75
2019-04-20T23:10:55.631Z,15.00
2019-04-20T23:16:02.194Z,15.50
2019-04-20T23:21:08.049Z,16.00
2019-04-20T23:26:11.427Z,17.00
2019-04-20T23:31:20.137Z,18.00
2019-04-20T23:36:31.897Z,16.60
2019-04-20T23:41:28.003Z,14.50
2019-04-20T23:46:53.473Z,15.60
2019-04-20T23:52:21.403Z,16.25
2019-04-20T23:57:01.831Z,15.00
